Station: Cairns Racecourse  

  Atmospheric Gas Attenuation - ITU Rec 676-11   ----------------- dB/100km -----------------
Date Time Temp RH % AH g/m3 Dew Point Wind Direction Speed kph Gust kph Barometer mB Rainfall Since 9am 24GHz 47GHz 76GHz 122GHz 134GHz 241GHz
04/09 12:00 26.4 53 13.19 16.1 17 28 1020 0 28.5 29.6 51.2 135.0 139.9 485.0
04/09 11:50 25.9 54 13.07 15.9 20 32 1020 0 28.3 29.6 51.0 134.5 139.2 482.6
04/09 11:40 25.8 55 13.24 16.1 17 24 1020.2 0 28.7 29.9 51.8 136.5 141.6 491.0
04/09 11:30 26.1 58 14.2 17.2 19 30 1020.5 0 30.7 31.4 55.5 146.4 153.8 533.6
04/09 11:20 25.8 56 13.48 16.4 19 26 1020.6 0 29.2 30.3 52.8 139.2 144.8 502.2
04/09 11:10 26.1 59 14.44 17.5 20 30 1020.7 0 31.2 31.8 56.5 149.0 157.0 544.9
04/09 11:00 25.8 59 14.2 17.2 13 26 1020.9 0 30.7 31.5 55.7 147.0 154.4 535.8
04/09 10:50 24.6 63 14.18 17.1 13 20 1021 0 30.8 31.9 56.5 149.0 156.6 543.2
04/09 10:40 24.8 65 14.8 17.8 13 20 1021.1 0 32.0 32.9 59.0 155.6 164.7 571.6
04/09 10:30 24.7 66 14.94 17.9 15 22 1021.3 0 32.3 33.2 59.7 157.4 166.9 579.2
04/09 10:20 25.2 66 15.36 18.4 13 26 1021.4 0 33.2 33.7 61.1 161.2 171.7 596.0
04/09 10:10 24.9 69 15.79 18.8 13 20 1021.4 0 34.1 34.6 63.2 166.8 178.5 619.6
04/09 10:00 24.6 67 15.08 18.1 11 20 1021.6 0 32.6 33.5 60.3 159.3 169.1 587.0
04/09 09:50 23.9 69 14.93 17.9 15 20 1021.5 0 32.4 33.5 60.2 159.0 168.6 584.8
04/09 09:40 23.6 71 15.1 18 13 19 1021.6 0 32.8 33.9 61.2 161.6 171.7 595.6
04/09 09:30 23.4 75 15.77 18.7 13 19 1021.7 0 34.2 35.1 64.3 169.9 181.8 630.9
04/09 09:20 23.3 77 16.1 19 11 15 1021.7 0 34.9 35.8 65.9 174.0 186.9 648.6
04/09 09:10 22.5 76 15.18 18.1 11 15 1021.6 0 33.0 34.5 62.5 164.8 175.3 608.2
04/09 09:00 22.4 78 15.49 18.4 9 13 1021.7 0 33.7 35.1 63.9 168.8 180.1 624.8
04/09 08:50 21.4 82 15.37 18.2 11 15 1021.5 0 33.5 35.2 64.2 169.5 180.7 626.7
04/09 08:40 20.5 84 14.95 17.7 9 13 1021.5 0 32.7 34.8 63.0 166.4 176.6 612.3
04/09 08:30 20.2 87 15.21 18 9 11 1021.5 0 33.3 35.4 64.5 170.2 181.2 628.3
04/09 08:20 19.4 88 14.68 17.4 9 13 1021.5 0 32.2 34.8 62.7 165.5 175.1 607.1
04/09 08:10 19.2 89 14.67 17.3 7 11 1021.4 0 32.2 34.9 62.8 165.8 175.4 608.1
04/09 08:00 18.4 90 14.15 16.7 7 11 1021.5 0 31.2 34.2 61.1 161.2 169.5 587.3
04/09 07:50 17.8 91 13.81 16.3 9 13 1021.3 0 30.5 33.8 60.0 158.3 165.7 574.1
04/09 07:40 17.5 92 13.72 16.2 11 13 1021.3 0 30.3 33.8 59.8 157.8 165.0 571.7
04/09 07:30 17.3 92 13.55 16 9 13 1021.3 0 30.0 33.6 59.2 156.2 162.9 564.3
04/09 07:20 17 95 13.75 16.2 9 13 1021.1 0 30.4 34.0 60.4 159.2 166.6 577.0
04/09 07:10 16.6 97 13.7 16.1 9 11 1020.9 0 30.3 34.1 60.4 159.4 166.7 577.3
04/09 07:00 16 99 13.49 15.8 7 9 1021 0 29.9 34.0 59.9 158.1 164.8 570.8
04/09 06:50 15.3 99 12.93 15.1 7 9 1020.8 0 28.8 33.2 57.9 152.6 157.9 546.3
04/09 06:40 15.1 99 12.77 14.9 7 9 1020.7 0 28.4 33.0 57.3 151.0 155.9 539.3
04/09 06:30 15.1 99 12.77 14.9 6 7 1020.7 0 28.4 33.0 57.3 151.0 155.9 539.3
04/09 06:20 15.2 98 12.72 14.9 6 7 1020.5 0 28.3 32.8 57.0 150.2 154.9 535.9
04/09 06:10 15.3 98 12.8 15 6 7 1020.4 0 28.5 32.9 57.3 151.0 155.9 539.4
04/09 06:00 15.5 97 12.82 15 7 9 1020.4 0 28.5 32.9 57.2 150.8 155.8 539.0
04/09 05:50 15.7 97 12.98 15.2 6 9 1020.2 0 28.9 33.1 57.8 152.3 157.7 545.8
04/09 05:40 15.8 97 13.06 15.3 7 11 1020.1 0 29.0 33.2 58.1 153.1 158.7 549.3
04/09 05:30 15.8 96 12.92 15.2 7 11 1020.1 0 28.7 32.9 57.4 151.4 156.6 542.0
04/09 05:20 16 96 13.08 15.4 9 11 1019.9 0 29.1 33.2 58.0 152.9 158.5 548.8
04/09 05:10 16.2 97 13.38 15.7 9 13 1020 0 29.7 33.6 59.2 156.2 162.6 563.1
04/09 05:00 15.9 99 13.41 15.7 7 11 1020 0 29.8 33.8 59.6 157.2 163.7 566.9
04/09 04:50 15.5 100 13.22 15.5 7 9 1019.8 0 29.4 33.6 59.0 155.6 161.7 559.7
04/09 04:40 15.5 100 13.22 15.5 6 7 1019.8 0 29.4 33.6 59.0 155.6 161.7 559.7
04/09 04:30 15.7 100 13.38 15.7 7 9 1019.8 0 29.7 33.8 59.6 157.2 163.7 566.7
04/09 04:20 15.6 100 13.3 15.6 6 9 1019.8 0 29.6 33.7 59.3 156.4 162.7 563.2
04/09 04:10 15.5 100 13.22 15.5 0 0 1019.8 0 29.4 33.6 59.0 155.6 161.7 559.7
04/09 04:00 15.4 100 13.14 15.4 0 0 1019.9 0 29.2 33.5 58.7 154.8 160.7 556.3
04/09 03:50 15.1 100 12.9 15.1 0 0 1019.8 0 28.7 33.2 57.8 152.5 157.7 545.8
04/09 03:40 15.3 100 13.06 15.3 0 0 1019.7 0 29.1 33.4 58.4 154.0 159.7 552.7
04/09 03:30 15.5 100 13.22 15.5 0 0 1019.9 0 29.4 33.6 59.0 155.6 161.7 559.8
04/09 03:20 15.2 100 12.98 15.2 0 0 1019.8 0 28.9 33.3 58.1 153.3 158.7 549.3
04/09 03:10 15.4 100 13.14 15.4 0 0 1019.8 0 29.2 33.5 58.7 154.8 160.7 556.3
04/09 03:00 15.7 100 13.38 15.7 0 0 1019.9 0 29.7 33.8 59.6 157.2 163.7 566.7
04/09 02:50 15.8 99 13.33 15.6 4 7 1019.8 0 29.6 33.7 59.3 156.4 162.7 563.3
04/09 02:40 16.2 100 13.79 16.2 7 9 1019.9 0 30.6 34.4 61.1 161.2 168.8 584.7
04/09 02:30 15.9 100 13.54 15.9 6 9 1020 0 30.1 34.0 60.2 158.8 165.7 573.7
04/09 02:20 15.8 100 13.46 15.8 2 6 1020 0 29.9 33.9 59.9 158.0 164.7 570.3
04/09 02:10 15.8 99 13.33 15.6 0 0 1020.1 0 29.6 33.7 59.3 156.4 162.7 563.4
04/09 02:00 16.4 99 13.82 16.2 0 0 1020.3 0 30.6 34.4 61.1 161.2 168.9 584.9
04/09 01:50 16.5 99 13.9 16.3 0 0 1020.3 0 30.8 34.5 61.4 162.0 169.9 588.4
04/09 01:40 16.4 99 13.82 16.2 2 6 1020.4 0 30.6 34.4 61.1 161.2 168.9 584.9
04/09 01:30 16.5 99 13.9 16.3 0 0 1020.6 0 30.8 34.5 61.4 162.0 169.9 588.5
04/09 01:20 16.7 99 14.07 16.5 0 0 1020.6 0 31.1 34.7 62.1 163.7 172.0 596.0
04/09 01:10 16.8 99 14.15 16.6 0 0 1020.7 0 31.3 34.9 62.4 164.5 173.0 599.5
04/09 01:00 16.8 98 14.01 16.5 0 6 1020.9 0 31.0 34.6 61.7 162.8 170.9 592.1
04/09 00:50 17.2 98 14.35 16.9 6 9 1020.8 0 31.7 35.1 63.0 166.1 175.2 607.0
04/09 00:40 17.3 98 14.44 17 6 9 1020.8 0 31.9 35.2 63.3 167.0 176.3 611.0
04/09 00:30 17.4 97 14.37 16.9 7 9 1021.1 0 31.7 35.0 62.9 166.0 175.1 606.6
04/09 00:20 17.6 97 14.55 17.1 7 11 1021.1 0 32.1 35.3 63.6 167.8 177.3 614.6
04/09 00:10 17.7 97 14.63 17.2 7 11 1021.1 0 32.3 35.4 63.9 168.6 178.3 618.0
04/09 00:00 17.6 98 14.7 17.3 7 9 1021.3 0 32.4 35.6 64.3 169.7 179.7 622.7
03/09 23:50 17.8 97 14.72 17.3 7 9 1021.2 0 32.4 35.5 64.2 169.5 179.5 622.0
03/09 23:40 18.1 96 14.83 17.5 7 9 1021.2 0 32.6 35.6 64.5 170.2 180.4 625.4
03/09 23:30 18.2 97 15.08 17.7 6 7 1021.4 0 33.2 36.0 65.6 173.1 184.1 638.1
03/09 23:20 18.2 96 14.92 17.6 6 7 1021.2 0 32.8 35.7 64.8 171.1 181.6 629.4
03/09 23:10 18.4 95 14.94 17.6 7 9 1021.3 0 32.9 35.7 64.7 170.9 181.4 628.9
03/09 23:00 18.9 93 15.07 17.7 6 9 1021.5 0 33.1 35.7 64.9 171.4 182.2 631.7
03/09 22:50 19.4 91 15.18 17.9 7 13 1021.3 0 33.3 35.7 65.0 171.6 182.6 633.3
03/09 22:40 19.5 91 15.27 18 9 13 1021.4 0 33.5 35.8 65.3 172.5 183.8 637.2
03/09 22:30 19.6 91 15.36 18.1 11 15 1021.5 0 33.7 36.0 65.7 173.4 184.9 641.2
03/09 22:20 19.6 91 15.36 18.1 9 15 1021.4 0 33.7 36.0 65.7 173.4 184.9 641.2
03/09 22:10 19.4 91 15.18 17.9 9 15 1021.4 0 33.3 35.7 65.0 171.6 182.7 633.3
03/09 22:00 19.3 91 15.09 17.8 9 13 1021.5 0 33.1 35.6 64.7 170.8 181.5 629.4
03/09 21:50 19.4 92 15.35 18.1 9 15 1021.4 0 33.7 36.0 65.8 173.7 185.2 642.3
03/09 21:40 19 94 15.32 18 9 13 1021.4 0 33.6 36.2 66.0 174.3 185.8 644.1
03/09 21:30 18.2 97 15.08 17.7 7 11 1021.4 0 33.2 36.0 65.6 173.1 184.1 638.1
03/09 21:20 18 98 15.05 17.7 0 7 1021.2 0 33.1 36.1 65.6 173.2 184.1 638.0
03/09 21:10 17.9 98 14.96 17.6 0 0 1021.2 0 32.9 35.9 65.3 172.3 182.9 634.1
03/09 21:00 17.9 96 14.66 17.3 0 0 1021.2 0 32.3 35.4 63.9 168.5 178.3 618.0
03/09 20:50 18.3 95 14.85 17.5 0 0 1021 0 32.7 35.6 64.4 169.9 180.2 624.8
03/09 20:40 18.5 90 14.24 16.8 6 7 1020.9 0 31.4 34.3 61.4 162.0 170.5 591.0
03/09 20:30 19.2 89 14.67 17.3 6 7 1020.9 0 32.2 34.8 62.8 165.7 175.4 607.9
03/09 20:20 19.5 88 14.77 17.5 6 9 1020.7 0 32.4 34.9 63.0 166.3 176.1 610.7
03/09 20:10 19.6 86 14.52 17.2 6 7 1020.5 0 31.9 34.4 61.8 163.0 172.2 596.8
03/09 20:00 19.6 86 14.52 17.2 7 9 1020.5 0 31.9 34.4 61.8 163.0 172.2 596.8
03/09 19:50 19.9 85 14.6 17.3 7 9 1020.3 0 32.0 34.4 61.9 163.3 172.6 598.5
03/09 19:40 20.4 82 14.5 17.2 7 9 1020.1 0 31.8 34.0 61.0 161.0 170.0 589.4
03/09 19:30 20.4 82 14.5 17.2 7 11 1020.1 0 31.8 34.0 61.0 161.0 170.0 589.4

Last Refresh: 04-Sep-2026 11:41:56

Bureau of Meteorology